Aviation Digital Data Service (ADDS)

Output produced by METARs form (1809 UTC 06 July 2015)
found at http://aviationweather.gov/adds/metars/
 
KMBS 061723Z 0618/0718 21011KT P6SM SCT040 BKN250 
     FM070600 20010KT P6SM SCT035 BKN050 
     FM071000 23011KT 5SM -SHRA BKN035 OVC050 
     FM071600 33011KT P6SM BKN035 OVC080